Time;durP1;ratioP1;P1;durP2;ratioP2;P2;SDS_P1;SDS_P2;PMS_P1;PMS_P2;Temp;Humidity;BMP_temperature;BMP_pressure;BME280_temperature;BME280_humidity;BME280_pressure;Samples;Min_cycle;Max_cycle;Signal;HPM_P1;HPM_P2
2023/05/29 00:00:43;;;;;;;9.93;5.65;;;17.50;72.90;;;;;;5114098;28;20036;-71
2023/05/29 00:03:09;;;;;;;14.02;6.75;;;17.50;73.10;;;;;;5114957;28;20028;-72
2023/05/29 00:05:35;;;;;;;9.63;6.22;;;17.40;73.10;;;;;;5114466;28;20027;-72
2023/05/29 00:08:01;;;;;;;11.05;6.22;;;17.40;73.30;;;;;;5114831;28;20375;-71
2023/05/29 00:10:27;;;;;;;14.45;6.63;;;17.30;73.30;;;;;;5114236;28;20028;-72
2023/05/29 00:12:52;;;;;;;8.15;5.50;;;17.30;73.60;;;;;;5114754;28;20081;-72
2023/05/29 00:15:18;;;;;;;10.32;5.72;;;17.20;73.70;;;;;;5114634;28;20134;-71
2023/05/29 00:17:44;;;;;;;8.70;5.32;;;17.20;73.90;;;;;;5114242;28;20035;-71
2023/05/29 00:20:11;;;;;;;13.20;5.97;;;17.20;73.70;;;;;;5114528;28;20028;-72
2023/05/29 00:22:37;;;;;;;12.82;5.10;;;17.20;73.70;;;;;;5112867;28;20035;-72
2023/05/29 00:25:07;;;;;;;10.50;5.93;;;17.20;73.90;;;;;;5114481;28;20031;-72
2023/05/29 00:27:33;;;;;;;12.70;6.07;;;17.20;73.90;;;;;;5113678;28;20436;-72
2023/05/29 00:29:59;;;;;;;14.10;5.57;;;17.20;74.10;;;;;;5114327;28;20042;-71
2023/05/29 00:32:27;;;;;;;10.25;5.13;;;17.10;74.30;;;;;;5114592;28;20193;-71
2023/05/29 00:34:53;;;;;;;10.75;5.80;;;17.10;74.70;;;;;;5113999;28;20027;-72
2023/05/29 00:37:21;;;;;;;15.07;6.22;;;17.00;74.80;;;;;;5114207;28;20027;-71
2023/05/29 00:39:50;;;;;;;9.52;5.78;;;17.00;75.00;;;;;;5113689;28;20055;-71
2023/05/29 00:42:15;;;;;;;10.27;5.38;;;16.90;74.80;;;;;;5114149;28;20035;-71
2023/05/29 00:44:41;;;;;;;7.93;4.90;;;16.90;75.20;;;;;;5113708;28;20024;-71
2023/05/29 00:47:07;;;;;;;10.85;5.70;;;16.90;75.00;;;;;;5113641;28;20141;-71
2023/05/29 00:49:34;;;;;;;13.02;5.40;;;16.80;75.00;;;;;;5113306;28;20428;-72
2023/05/29 00:52:00;;;;;;;10.82;5.32;;;16.80;75.00;;;;;;5113784;28;20087;-71
2023/05/29 00:54:30;;;;;;;9.85;5.07;;;16.80;75.20;;;;;;5113958;28;20110;-71
2023/05/29 00:56:57;;;;;;;9.10;5.10;;;16.70;75.40;;;;;;5112781;28;20376;-71
2023/05/29 00:59:25;;;;;;;10.63;5.10;;;16.70;75.50;;;;;;5113742;28;20063;-71
2023/05/29 01:01:51;;;;;;;10.52;5.65;;;16.70;75.40;;;;;;5113306;28;20165;-71
2023/05/29 01:04:17;;;;;;;10.30;5.55;;;16.60;75.90;;;;;;5113407;28;20472;-70
2023/05/29 01:06:43;;;;;;;11.52;5.50;;;16.60;75.60;;;;;;5113476;28;20116;-71
2023/05/29 01:09:09;;;;;;;7.85;5.13;;;16.50;76.20;;;;;;5113540;28;20392;-70
2023/05/29 01:11:42;;;;;;;9.75;5.50;;;16.50;76.00;;;;;;5113362;28;20551;-71
2023/05/29 01:14:13;;;;;;;10.23;4.93;;;16.40;76.00;;;;;;5113685;28;20027;-71
2023/05/29 01:16:51;;;;;;;11.40;4.95;;;16.40;76.00;;;;;;5113229;28;20036;-71
2023/05/29 01:19:35;;;;;;;9.77;5.25;;;16.40;75.90;;;;;;5113587;28;20418;-71
2023/05/29 01:22:09;;;;;;;9.95;4.93;;;16.40;75.70;;;;;;5113447;28;20028;-71
2023/05/29 01:24:58;;;;;;;9.13;5.20;;;16.30;75.90;;;;;;5113050;28;20023;-71
2023/05/29 01:27:25;;;;;;;7.82;4.53;;;16.20;75.70;;;;;;5113456;28;20107;-71
2023/05/29 01:29:52;;;;;;;7.38;4.53;;;16.20;75.90;;;;;;5112445;28;20455;-71
2023/05/29 01:32:18;;;;;;;9.10;5.00;;;16.10;76.20;;;;;;5113004;28;20059;-71
2023/05/29 01:34:44;;;;;;;10.63;4.65;;;16.00;76.80;;;;;;5112885;28;20023;-70
2023/05/29 01:37:10;;;;;;;8.57;4.60;;;15.90;77.40;;;;;;5113167;28;20031;-71
2023/05/29 01:39:35;;;;;;;7.53;4.05;;;15.80;77.00;;;;;;5112793;28;20039;-71
2023/05/29 01:42:01;;;;;;;9.85;4.70;;;15.70;77.80;;;;;;5113060;28;20036;-71
2023/05/29 01:44:28;;;;;;;10.73;5.10;;;15.70;77.60;;;;;;5113147;28;20024;-71
2023/05/29 01:46:55;;;;;;;10.75;4.80;;;15.70;77.40;;;;;;5112625;28;20166;-71
2023/05/29 01:49:23;;;;;;;7.25;4.60;;;15.60;77.50;;;;;;5111842;28;20054;-71
2023/05/29 01:51:48;;;;;;;10.23;4.53;;;15.60;77.50;;;;;;5112354;28;20062;-70
2023/05/29 01:54:14;;;;;;;8.25;4.10;;;15.60;77.60;;;;;;5112968;28;20028;-71
2023/05/29 01:56:41;;;;;;;13.10;4.50;;;15.60;77.30;;;;;;5112595;28;20035;-71
2023/05/29 01:59:07;;;;;;;6.20;4.10;;;15.60;77.30;;;;;;5112914;28;20031;-71
2023/05/29 02:01:33;;;;;;;8.73;4.18;;;15.60;77.60;;;;;;5112825;28;20042;-70
2023/05/29 02:03:59;;;;;;;7.75;4.28;;;15.50;77.60;;;;;;5112677;28;20019;-71
2023/05/29 02:06:24;;;;;;;9.15;4.72;;;15.50;77.90;;;;;;5112891;28;20110;-71
2023/05/29 02:08:50;;;;;;;15.23;4.45;;;15.50;78.10;;;;;;5112242;28;20023;-71
2023/05/29 02:11:16;;;;;;;6.47;4.10;;;15.50;77.90;;;;;;5112626;28;20042;-72
2023/05/29 02:13:42;;;;;;;7.63;4.45;;;15.40;78.00;;;;;;5112567;28;20024;-70
2023/05/29 02:16:07;;;;;;;7.85;4.82;;;15.40;77.90;;;;;;5112832;28;20038;-70
2023/05/29 02:18:34;;;;;;;7.15;4.38;;;15.30;77.90;;;;;;5112408;28;20094;-70
2023/05/29 02:21:00;;;;;;;9.35;4.25;;;15.30;78.40;;;;;;5112069;28;20032;-70
2023/05/29 02:23:26;;;;;;;8.90;4.45;;;15.30;78.30;;;;;;5112284;28;20353;-70
2023/05/29 02:25:51;;;;;;;7.68;4.43;;;15.20;78.30;;;;;;5112324;28;20027;-71
2023/05/29 02:28:17;;;;;;;8.45;4.40;;;15.20;78.60;;;;;;5112703;28;20035;-71
2023/05/29 02:30:43;;;;;;;6.97;4.70;;;15.10;78.90;;;;;;5112097;28;20571;-71
2023/05/29 02:33:08;;;;;;;8.30;3.88;;;15.10;79.00;;;;;;5112693;28;20020;-71
2023/05/29 02:35:34;;;;;;;9.80;4.43;;;15.10;79.40;;;;;;5113231;28;20353;-71
2023/05/29 02:38:00;;;;;;;10.85;4.45;;;15.10;79.50;;;;;;5112324;28;20028;-71
2023/05/29 02:40:25;;;;;;;11.25;4.85;;;15.10;79.60;;;;;;5111290;28;20047;-70
2023/05/29 02:42:51;;;;;;;8.77;4.10;;;15.10;79.70;;;;;;5114120;28;20034;-71
2023/05/29 02:45:17;;;;;;;8.35;4.40;;;15.10;79.90;;;;;;5116125;28;20383;-71
2023/05/29 02:47:42;;;;;;;10.48;4.45;;;15.10;80.40;;;;;;5115907;28;20160;-71
2023/05/29 02:50:09;;;;;;;7.65;4.75;;;15.10;79.50;;;;;;5116425;28;20031;-71
2023/05/29 02:52:36;;;;;;;7.43;4.72;;;15.10;79.80;;;;;;5116007;28;20438;-70
2023/05/29 02:55:02;;;;;;;8.57;4.65;;;15.00;80.20;;;;;;5115868;28;20028;-70
2023/05/29 02:57:28;;;;;;;8.40;4.60;;;15.10;80.10;;;;;;5116225;28;20024;-70
2023/05/29 02:59:54;;;;;;;10.35;4.57;;;15.00;80.40;;;;;;5114209;28;20038;-70
2023/05/29 03:02:20;;;;;;;6.68;4.55;;;14.90;81.20;;;;;;5116063;28;20024;-71
2023/05/29 03:04:46;;;;;;;14.82;4.75;;;14.90;81.00;;;;;;5115793;28;20031;-70
2023/05/29 03:07:12;;;;;;;8.40;4.60;;;14.90;81.10;;;;;;5116001;28;20023;-70
2023/05/29 03:09:38;;;;;;;12.85;4.80;;;14.90;81.00;;;;;;5115971;28;20020;-71
2023/05/29 03:12:04;;;;;;;12.88;4.75;;;14.90;81.20;;;;;;5116173;28;20126;-71
2023/05/29 03:14:33;;;;;;;7.03;4.03;;;14.90;80.90;;;;;;5115635;28;20520;-71
2023/05/29 03:16:59;;;;;;;6.05;4.50;;;14.90;81.20;;;;;;5115495;28;20271;-72
2023/05/29 03:19:24;;;;;;;6.68;4.30;;;14.90;81.30;;;;;;5115757;28;20039;-72
2023/05/29 03:21:50;;;;;;;8.98;4.28;;;14.90;81.10;;;;;;5115362;28;20040;-72
2023/05/29 03:24:16;;;;;;;6.93;4.43;;;14.90;81.20;;;;;;5115771;28;20031;-72
2023/05/29 03:26:42;;;;;;;9.52;4.63;;;14.80;81.60;;;;;;5114085;28;20085;-72
2023/05/29 03:29:07;;;;;;;8.15;4.25;;;14.80;81.40;;;;;;5115971;28;20418;-71
2023/05/29 03:31:33;;;;;;;8.95;5.07;;;14.80;81.70;;;;;;5115685;28;20027;-71
2023/05/29 03:33:59;;;;;;;7.88;4.63;;;14.70;81.70;;;;;;5114929;28;20047;-71
2023/05/29 03:36:25;;;;;;;9.85;4.20;;;14.70;82.10;;;;;;5115713;28;20015;-70
2023/05/29 03:38:51;;;;;;;10.48;4.63;;;14.70;81.80;;;;;;5115225;28;20026;-70
2023/05/29 03:41:16;;;;;;;11.82;4.75;;;14.70;82.30;;;;;;5115296;28;20036;-70
2023/05/29 03:43:42;;;;;;;11.05;5.35;;;14.50;82.70;;;;;;5114866;28;20035;-72
2023/05/29 03:46:08;;;;;;;8.93;4.55;;;14.50;83.20;;;;;;5115319;28;20052;-72
2023/05/29 03:48:33;;;;;;;9.05;4.93;;;14.60;83.20;;;;;;5116605;28;20114;-72
2023/05/29 03:50:59;;;;;;;8.10;4.35;;;14.50;83.10;;;;;;5112806;28;20471;-72
2023/05/29 03:53:25;;;;;;;9.30;4.72;;;14.50;83.30;;;;;;5116447;28;20028;-72
2023/05/29 03:55:50;;;;;;;6.50;4.20;;;14.50;83.30;;;;;;5116576;28;20030;-72
2023/05/29 03:58:16;;;;;;;7.40;4.57;;;14.50;83.70;;;;;;5116418;28;20375;-72
2023/05/29 04:00:41;;;;;;;6.75;4.05;;;14.50;83.40;;;;;;5114634;28;20486;-72
2023/05/29 04:03:08;;;;;;;10.93;4.75;;;14.50;83.90;;;;;;5115283;28;20408;-71
2023/05/29 04:05:34;;;;;;;8.02;4.85;;;14.60;83.10;;;;;;5114878;28;20032;-71
2023/05/29 04:08:00;;;;;;;11.23;5.15;;;14.60;83.30;;;;;;5113333;28;20019;-72
2023/05/29 04:10:26;;;;;;;8.32;4.35;;;14.60;83.30;;;;;;5115003;28;20027;-71
2023/05/29 04:12:52;;;;;;;10.13;4.55;;;14.70;83.20;;;;;;5114524;28;20463;-72
2023/05/29 04:15:17;;;;;;;9.23;4.25;;;14.80;83.00;;;;;;5114437;28;20483;-71
2023/05/29 04:17:43;;;;;;;9.70;4.18;;;14.80;82.60;;;;;;5114467;28;20023;-70
2023/05/29 04:20:09;;;;;;;10.00;4.40;;;14.90;82.40;;;;;;5114403;28;20097;-70
2023/05/29 04:22:36;;;;;;;6.07;4.10;;;14.90;82.20;;;;;;5113254;28;20472;-70
2023/05/29 04:25:06;;;;;;;8.05;4.43;;;15.00;82.10;;;;;;5114226;28;20023;-70
2023/05/29 04:27:32;;;;;;;8.57;4.75;;;15.10;82.00;;;;;;5114593;28;20039;-70
2023/05/29 04:29:58;;;;;;;12.20;4.78;;;15.20;81.40;;;;;;5114161;28;20031;-71
2023/05/29 04:32:24;;;;;;;9.93;4.53;;;15.30;80.70;;;;;;5114344;28;20043;-71
2023/05/29 04:34:51;;;;;;;7.70;4.32;;;15.40;80.30;;;;;;5113945;28;20028;-71
2023/05/29 04:37:17;;;;;;;7.82;4.43;;;15.50;80.10;;;;;;5114281;28;20433;-72
2023/05/29 04:39:42;;;;;;;9.02;5.20;;;15.60;79.70;;;;;;5114212;28;20035;-72
2023/05/29 04:42:08;;;;;;;10.88;4.40;;;15.70;79.60;;;;;;5113722;28;20034;-72
2023/05/29 04:44:34;;;;;;;8.48;4.53;;;15.80;79.20;;;;;;5114177;28;20024;-71
2023/05/29 04:47:02;;;;;;;7.82;4.05;;;16.00;78.20;;;;;;5113175;28;20101;-72
2023/05/29 04:49:28;;;;;;;10.85;4.50;;;16.10;77.60;;;;;;5114125;28;20119;-71
2023/05/29 04:51:54;;;;;;;13.35;4.43;;;16.30;76.90;;;;;;5113280;28;20484;-72
2023/05/29 04:54:22;;;;;;;11.73;4.78;;;16.40;76.60;;;;;;5113740;28;20035;-72
2023/05/29 04:56:47;;;;;;;11.00;4.35;;;16.60;75.90;;;;;;5113271;28;20424;-72
2023/05/29 04:59:13;;;;;;;8.45;4.30;;;16.80;74.70;;;;;;5113792;28;20074;-72
2023/05/29 05:01:39;;;;;;;6.32;4.22;;;17.00;73.20;;;;;;5113948;28;20430;-71
2023/05/29 05:04:05;;;;;;;8.90;4.57;;;17.20;73.10;;;;;;5113246;28;20028;-72
2023/05/29 05:06:30;;;;;;;8.98;4.43;;;17.50;72.00;;;;;;5113125;28;20016;-72
2023/05/29 05:08:56;;;;;;;10.52;4.70;;;17.90;71.10;;;;;;5114900;28;20027;-72
2023/05/29 05:11:23;;;;;;;8.65;4.63;;;18.40;69.20;;;;;;5116585;28;20024;-71
2023/05/29 05:13:49;;;;;;;8.20;4.72;;;18.90;68.30;;;;;;5114411;28;20027;-72
2023/05/29 05:16:16;;;;;;;6.72;4.10;;;19.30;65.00;;;;;;5114292;28;20051;-72
2023/05/29 05:18:43;;;;;;;10.82;4.32;;;19.70;63.50;;;;;;5113453;28;20065;-72
2023/05/29 05:21:09;;;;;;;9.38;4.18;;;19.90;62.70;;;;;;5112370;28;20100;-71
2023/05/29 05:23:34;;;;;;;7.50;4.70;;;20.40;60.70;;;;;;5113425;28;20114;-71
2023/05/29 05:26:00;;;;;;;8.90;4.55;;;20.70;59.70;;;;;;5112926;28;20068;-71
2023/05/29 05:28:25;;;;;;;9.55;4.05;;;21.00;58.90;;;;;;5113484;28;20024;-71
2023/05/29 05:30:51;;;;;;;8.50;4.75;;;21.10;57.90;;;;;;5112602;28;20027;-71
2023/05/29 05:33:17;;;;;;;9.98;4.25;;;21.40;57.40;;;;;;5112944;28;20441;-71
2023/05/29 05:35:43;;;;;;;7.85;4.20;;;21.70;56.40;;;;;;5113284;28;20058;-71
2023/05/29 05:38:09;;;;;;;7.93;4.00;;;22.10;55.60;;;;;;5112835;28;20063;-71
2023/05/29 05:40:34;;;;;;;5.82;4.40;;;22.40;54.20;;;;;;5113277;28;20042;-71
2023/05/29 05:43:00;;;;;;;6.30;4.05;;;22.70;53.80;;;;;;5112027;28;20054;-71
2023/05/29 05:45:25;;;;;;;7.03;4.35;;;23.00;53.10;;;;;;5112936;28;20055;-71
2023/05/29 05:47:51;;;;;;;11.63;4.25;;;23.40;52.40;;;;;;5112766;28;20035;-72
2023/05/29 05:50:17;;;;;;;8.05;4.22;;;23.60;51.50;;;;;;5113284;28;20419;-71
2023/05/29 05:52:42;;;;;;;8.43;3.97;;;24.00;50.40;;;;;;5113049;28;20054;-71
2023/05/29 05:55:08;;;;;;;9.10;4.13;;;24.60;49.30;;;;;;5112303;28;20080;-71
2023/05/29 05:57:35;;;;;;;6.72;3.60;;;25.10;48.20;;;;;;5113014;28;20036;-71
2023/05/29 06:00:04;;;;;;;7.70;3.80;;;25.50;47.10;;;;;;5112604;28;20028;-71
2023/05/29 06:02:30;;;;;;;5.57;4.10;;;26.00;46.20;;;;;;5111594;28;20035;-71
2023/05/29 06:04:55;;;;;;;6.43;3.67;;;26.20;45.50;;;;;;5112574;28;20028;-71
2023/05/29 06:07:21;;;;;;;7.65;3.90;;;26.60;44.90;;;;;;5112966;28;20376;-71
2023/05/29 06:09:47;;;;;;;6.53;3.40;;;27.10;43.70;;;;;;5112913;28;20019;-71
2023/05/29 06:12:13;;;;;;;7.13;4.20;;;27.80;42.00;;;;;;5112445;28;20387;-72
2023/05/29 06:14:38;;;;;;;6.30;3.22;;;28.50;41.00;;;;;;5113253;28;20476;-71
2023/05/29 06:17:04;;;;;;;5.88;3.05;;;28.90;38.80;;;;;;5114305;28;20030;-72
2023/05/29 06:19:30;;;;;;;6.75;3.58;;;28.90;38.50;;;;;;5116982;28;20024;-71
2023/05/29 06:21:55;;;;;;;6.82;3.63;;;29.40;37.30;;;;;;5116580;28;20031;-72
2023/05/29 06:24:21;;;;;;;4.43;3.13;;;30.10;37.20;;;;;;5116648;28;20020;-71
2023/05/29 06:26:47;;;;;;;5.05;2.80;;;30.50;36.10;;;;;;5116865;28;20059;-71
2023/05/29 06:29:12;;;;;;;5.55;2.97;;;30.80;34.90;;;;;;5116486;28;20239;-71
2023/05/29 06:31:38;;;;;;;7.70;3.00;;;31.00;35.10;;;;;;5116855;28;20415;-71
2023/05/29 06:34:03;;;;;;;5.70;3.15;;;31.20;33.80;;;;;;5116391;28;20035;-72
2023/05/29 06:36:29;;;;;;;4.70;2.90;;;31.50;33.60;;;;;;5116617;28;20455;-72
2023/05/29 06:38:55;;;;;;;4.53;3.00;;;31.80;32.70;;;;;;5116359;28;20139;-72
2023/05/29 06:41:21;;;;;;;5.82;3.55;;;32.20;33.10;;;;;;5116528;28;20032;-72
2023/05/29 06:43:47;;;;;;;9.98;3.28;;;32.10;32.30;;;;;;5115242;28;20023;-72
2023/05/29 06:46:12;;;;;;;5.72;3.15;;;32.30;32.30;;;;;;5115620;28;20046;-71
2023/05/29 06:48:38;;;;;;;5.25;3.67;;;32.20;32.20;;;;;;5116293;28;20046;-72
2023/05/29 06:51:08;;;;;;;5.13;3.20;;;32.10;31.60;;;;;;5115633;28;20502;-72
2023/05/29 06:53:39;;;;;;;4.72;2.70;;;32.10;32.00;;;;;;5116372;28;20024;-71
2023/05/29 06:56:06;;;;;;;3.72;2.92;;;32.30;31.80;;;;;;5115892;28;20051;-71
2023/05/29 06:58:31;;;;;;;4.75;3.28;;;32.30;31.80;;;;;;5116210;28;20024;-72
2023/05/29 07:00:58;;;;;;;5.97;3.33;;;32.70;31.40;;;;;;5115418;28;20498;-71
2023/05/29 07:03:25;;;;;;;6.82;3.38;;;32.80;32.30;;;;;;5116155;28;20031;-71
2023/05/29 07:05:51;;;;;;;5.85;3.17;;;33.10;31.30;;;;;;5116053;28;20028;-71
2023/05/29 07:08:17;;;;;;;5.97;3.00;;;32.70;31.30;;;;;;5115673;28;20023;-71
2023/05/29 07:10:42;;;;;;;5.53;3.00;;;32.70;30.50;;;;;;5115709;28;20052;-71
2023/05/29 07:13:08;;;;;;;5.20;2.90;;;32.70;30.50;;;;;;5115618;28;20027;-71
2023/05/29 07:15:34;;;;;;;8.15;3.15;;;33.00;31.00;;;;;;5115833;28;20027;-71
2023/05/29 07:18:00;;;;;;;4.95;3.25;;;32.50;30.60;;;;;;5115372;28;20035;-71
2023/05/29 07:20:26;;;;;;;5.57;3.08;;;32.60;31.00;;;;;;5115780;28;20439;-71
2023/05/29 07:22:51;;;;;;;6.43;3.70;;;33.20;31.40;;;;;;5115761;28;20456;-71
2023/05/29 07:25:17;;;;;;;3.95;2.85;;;33.60;30.50;;;;;;5115075;28;20038;-71
2023/05/29 07:27:43;;;;;;;5.43;2.92;;;33.50;30.30;;;;;;5115072;28;20115;-72
2023/05/29 07:30:09;;;;;;;5.00;3.05;;;33.60;30.00;;;;;;5114956;28;20464;-71
2023/05/29 07:32:35;;;;;;;4.28;2.85;;;33.20;29.90;;;;;;5115852;28;20096;-71
2023/05/29 07:35:01;;;;;;;7.90;3.30;;;33.30;30.40;;;;;;5115167;28;20024;-71
2023/05/29 07:37:26;;;;;;;5.43;3.13;;;33.30;30.00;;;;;;5115521;28;20023;-71
2023/05/29 07:39:52;;;;;;;5.88;3.60;;;33.10;29.90;;;;;;5115040;28;20039;-72
2023/05/29 07:42:18;;;;;;;5.47;3.35;;;32.60;30.30;;;;;;5114910;28;20469;-71
2023/05/29 07:44:45;;;;;;;3.88;2.95;;;32.50;30.20;;;;;;5115329;28;20078;-72
2023/05/29 07:47:11;;;;;;;6.50;3.47;;;31.80;30.10;;;;;;5114027;28;20066;-72
2023/05/29 07:49:36;;;;;;;6.65;3.20;;;32.10;31.20;;;;;;5115181;28;20024;-72
2023/05/29 07:52:03;;;;;;;7.45;3.63;;;32.30;30.50;;;;;;5114573;28;20519;-72
2023/05/29 07:54:32;;;;;;;4.70;3.00;;;32.50;30.40;;;;;;5115285;28;20035;-72
2023/05/29 07:56:59;;;;;;;4.28;2.70;;;32.30;29.90;;;;;;5115034;28;20038;-71
2023/05/29 07:59:25;;;;;;;6.18;3.13;;;32.20;30.20;;;;;;5115344;28;20027;-72
2023/05/29 08:01:51;;;;;;;5.30;3.05;;;32.10;30.30;;;;;;5114919;28;20031;-72
2023/05/29 08:04:16;;;;;;;3.53;2.50;;;31.90;30.20;;;;;;5114604;28;20054;-72
2023/05/29 08:06:43;;;;;;;4.38;2.63;;;32.00;30.50;;;;;;5113754;28;20357;-72
2023/05/29 08:09:09;;;;;;;6.55;3.25;;;31.80;30.40;;;;;;5114539;28;20032;-72
2023/05/29 08:11:36;;;;;;;4.07;2.80;;;31.80;30.80;;;;;;5114519;28;20484;-71
2023/05/29 08:14:02;;;;;;;5.53;3.10;;;31.90;30.20;;;;;;5114358;28;20085;-72
2023/05/29 08:16:27;;;;;;;7.20;3.15;;;32.00;30.30;;;;;;5115054;28;20032;-72
2023/05/29 08:18:53;;;;;;;4.32;2.78;;;31.50;30.00;;;;;;5114779;28;20024;-72
2023/05/29 08:21:19;;;;;;;5.10;2.95;;;31.40;31.20;;;;;;5114230;28;20486;-72
2023/05/29 08:23:45;;;;;;;4.88;3.00;;;31.40;30.80;;;;;;5114762;28;20030;-71
2023/05/29 08:26:11;;;;;;;3.90;2.58;;;31.20;32.40;;;;;;5114120;28;20468;-71
2023/05/29 08:28:37;;;;;;;6.55;3.10;;;31.00;31.20;;;;;;5114574;28;20016;-72
2023/05/29 08:31:02;;;;;;;4.25;2.78;;;30.60;31.40;;;;;;5114354;28;20032;-72
2023/05/29 08:33:30;;;;;;;7.13;3.38;;;30.30;31.80;;;;;;5114429;28;20028;-72
2023/05/29 08:36:00;;;;;;;7.88;3.15;;;29.70;32.40;;;;;;5114339;28;20054;-71
2023/05/29 08:38:26;;;;;;;7.57;3.30;;;28.80;33.30;;;;;;5114108;28;20038;-72
2023/05/29 08:40:51;;;;;;;10.82;3.45;;;28.70;35.30;;;;;;5113428;28;20023;-71
2023/05/29 08:43:24;;;;;;;8.50;3.22;;;28.80;35.30;;;;;;5113755;28;20039;-71
2023/05/29 08:45:55;;;;;;;4.38;2.92;;;28.70;34.10;;;;;;5114199;28;20436;-71
2023/05/29 08:48:27;;;;;;;7.68;2.90;;;28.50;34.30;;;;;;5113818;28;20031;-72
2023/05/29 08:50:54;;;;;;;5.07;3.13;;;28.40;34.90;;;;;;5113871;28;20027;-71
2023/05/29 08:53:21;;;;;;;6.72;3.40;;;28.10;34.90;;;;;;5113632;28;20023;-71
2023/05/29 08:55:50;;;;;;;6.18;2.75;;;27.60;35.40;;;;;;5114182;28;20042;-71
2023/05/29 08:58:17;;;;;;;4.28;2.88;;;27.40;36.30;;;;;;5113461;28;20028;-71
2023/05/29 09:00:45;;;;;;;6.43;2.88;;;27.30;36.30;;;;;;5113879;28;20027;-71
2023/05/29 09:03:11;;;;;;;3.83;2.58;;;27.10;36.70;;;;;;5113782;28;20034;-71
2023/05/29 09:05:40;;;;;;;7.97;3.28;;;26.70;37.20;;;;;;5112640;28;20099;-71
2023/05/29 09:08:07;;;;;;;4.68;3.10;;;26.90;37.80;;;;;;5113411;28;20020;-72
2023/05/29 09:10:33;;;;;;;8.30;2.75;;;27.00;37.90;;;;;;5113787;28;20509;-71
2023/05/29 09:12:59;;;;;;;5.55;3.05;;;26.90;37.00;;;;;;5113736;28;20020;-71
2023/05/29 09:15:24;;;;;;;6.57;2.35;;;26.80;37.70;;;;;;5112864;28;20049;-71
2023/05/29 09:17:55;;;;;;;5.28;3.47;;;26.60;38.00;;;;;;5113672;28;20019;-70
2023/05/29 09:20:24;;;;;;;5.43;2.90;;;26.70;37.90;;;;;;5113227;28;20027;-70
2023/05/29 09:22:58;;;;;;;3.55;2.60;;;26.60;37.40;;;;;;5113607;28;20024;-70
2023/05/29 09:25:26;;;;;;;7.75;2.83;;;26.50;37.80;;;;;;5113164;28;20325;-71
2023/05/29 09:28:08;;;;;;;5.53;2.90;;;26.40;37.80;;;;;;5113058;28;20020;-71
2023/05/29 09:30:41;;;;;;;5.72;2.90;;;26.50;38.20;;;;;;5113653;28;20019;-71
2023/05/29 09:33:11;;;;;;;6.72;2.83;;;26.20;38.70;;;;;;5113281;28;20028;-73
2023/05/29 09:35:43;;;;;;;7.13;2.90;;;26.30;39.10;;;;;;5113407;28;20047;-71
2023/05/29 09:38:11;;;;;;;5.22;2.70;;;26.10;38.30;;;;;;5113085;28;20088;-72
2023/05/29 09:40:38;;;;;;;5.22;2.90;;;26.10;39.60;;;;;;5113346;28;20076;-72
2023/05/29 09:43:17;;;;;;;6.15;2.75;;;26.10;40.40;;;;;;5111834;28;20420;-71
2023/05/29 09:45:45;;;;;;;4.60;2.63;;;26.00;39.20;;;;;;5111925;28;20070;-71
2023/05/29 09:48:18;;;;;;;9.20;2.90;;;25.80;38.90;;;;;;5112742;28;20023;-72
2023/05/29 09:50:47;;;;;;;4.63;3.17;;;25.60;38.90;;;;;;5112641;28;20032;-72
2023/05/29 09:53:24;;;;;;;7.65;2.88;;;25.50;38.90;;;;;;5112674;28;20507;-72
2023/05/29 09:55:54;;;;;;;8.38;3.38;;;25.50;39.50;;;;;;5113381;28;20035;-72
2023/05/29 09:58:23;;;;;;;4.90;2.58;;;25.40;39.30;;;;;;5112652;28;20019;-71
2023/05/29 10:00:51;;;;;;;5.45;2.38;;;25.40;39.60;;;;;;5112734;28;20036;-71
2023/05/29 10:03:18;;;;;;;4.32;2.88;;;25.40;40.00;;;;;;5111533;28;20080;-72
2023/05/29 10:05:48;;;;;;;8.65;3.42;;;25.40;39.60;;;;;;5112895;28;20035;-71
2023/05/29 10:08:17;;;;;;;4.93;3.00;;;25.10;39.70;;;;;;5112649;28;20110;-72
2023/05/29 10:10:47;;;;;;;6.00;2.78;;;25.10;39.80;;;;;;5112966;28;20034;-71
2023/05/29 10:13:14;;;;;;;6.60;3.08;;;25.10;40.90;;;;;;5112834;28;20034;-71
2023/05/29 10:15:45;;;;;;;6.25;2.58;;;25.10;41.00;;;;;;5112867;28;20106;-73
2023/05/29 10:18:20;;;;;;;7.13;2.95;;;25.00;41.40;;;;;;5112532;28;20024;-71
2023/05/29 10:20:52;;;;;;;5.80;2.97;;;25.00;41.40;;;;;;5112968;28;20058;-71
2023/05/29 10:23:23;;;;;;;7.97;3.10;;;24.90;42.40;;;;;;5112542;28;20064;-71
2023/05/29 10:25:53;;;;;;;4.63;2.92;;;24.60;42.20;;;;;;5113116;28;20371;-71
2023/05/29 10:28:23;;;;;;;7.40;2.90;;;24.60;42.60;;;;;;5112609;28;20027;-71
2023/05/29 10:31:04;;;;;;;6.00;2.90;;;24.80;42.60;;;;;;5112919;28;20258;-71
2023/05/29 10:33:41;;;;;;;;;;;24.90;40.60;;;;;;5112856;28;20068;-71
2023/05/29 10:36:14;;;;;;;7.40;3.00;;;25.10;39.90;;;;;;5112849;28;19904;-71
2023/05/29 10:38:45;;;;;;;4.50;2.80;;;25.10;39.60;;;;;;5112780;28;20027;-71
2023/05/29 10:41:26;;;;;;;4.60;2.53;;;25.00;38.30;;;;;;5111430;28;20108;-71
2023/05/29 10:43:55;;;;;;;5.82;2.42;;;25.00;38.60;;;;;;5112723;28;20059;-70
2023/05/29 10:46:41;;;;;;;5.15;2.70;;;24.90;38.60;;;;;;5111945;28;20039;-70
2023/05/29 10:49:19;;;;;;;3.78;2.55;;;25.00;38.40;;;;;;5112610;28;20106;-71
2023/05/29 10:51:45;;;;;;;7.68;2.95;;;25.20;38.40;;;;;;5112701;28;20031;-71
2023/05/29 10:54:11;;;;;;;4.45;2.65;;;25.30;37.30;;;;;;5112674;28;20088;-71
2023/05/29 10:56:36;;;;;;;9.68;2.97;;;25.20;37.40;;;;;;5111962;28;20038;-71
2023/05/29 10:59:02;;;;;;;4.78;2.63;;;25.20;37.90;;;;;;5112585;28;20023;-71
2023/05/29 11:01:31;;;;;;;8.25;3.10;;;25.30;38.10;;;;;;5111813;28;20024;-71
2023/05/29 11:04:15;;;;;;;7.00;3.20;;;25.30;37.70;;;;;;5114241;28;20027;-71
2023/05/29 11:06:41;;;;;;;8.93;3.22;;;25.30;38.50;;;;;;5116214;28;20077;-71
2023/05/29 11:09:37;;;;;;;7.63;2.80;;;25.40;39.00;;;;;;5116277;28;20484;-71
2023/05/29 11:12:55;;;;;;;7.15;2.97;;;25.40;38.50;;;;;;5115077;28;20023;-71
2023/05/29 11:15:20;;;;;;;6.38;2.60;;;25.30;38.90;;;;;;5089811;28;20187;-72
2023/05/29 11:17:46;;;;;;;5.80;2.45;;;25.10;40.80;;;;;;5115864;28;20028;-71
2023/05/29 11:20:33;;;;;;;7.82;3.00;;;25.10;38.60;;;;;;5115972;28;20111;-71
2023/05/29 11:22:58;;;;;;;6.97;2.90;;;25.10;38.80;;;;;;5115661;28;20077;-71
2023/05/29 11:25:24;;;;;;;6.40;2.80;;;25.30;38.40;;;;;;5114944;28;20039;-71
2023/05/29 11:27:52;;;;;;;3.92;2.60;;;25.30;38.20;;;;;;5115741;28;20109;-71
2023/05/29 11:30:18;;;;;;;7.05;3.33;;;25.30;38.20;;;;;;5114146;28;20383;-71
2023/05/29 11:32:52;;;;;;;4.85;2.80;;;25.40;38.00;;;;;;5115765;28;20039;-70
2023/05/29 11:35:21;;;;;;;8.38;3.40;;;25.50;38.10;;;;;;5114985;28;20463;-72
2023/05/29 11:37:47;;;;;;;4.40;2.97;;;25.60;37.10;;;;;;5114442;28;20039;-72
2023/05/29 11:40:14;;;;;;;6.30;3.22;;;25.60;37.40;;;;;;5115423;28;20110;-71
2023/05/29 11:42:44;;;;;;;4.97;2.80;;;25.60;37.60;;;;;;5115031;28;20070;-72
2023/05/29 11:45:21;;;;;;;8.50;3.00;;;25.60;37.50;;;;;;5113904;28;20114;-72
2023/05/29 11:48:01;;;;;;;4.50;2.95;;;25.60;36.70;;;;;;5115385;28;20386;-72
2023/05/29 11:50:28;;;;;;;8.02;3.47;;;25.60;36.50;;;;;;5114863;28;20088;-72
2023/05/29 11:52:56;;;;;;;3.97;3.15;;;25.50;36.20;;;;;;5113941;28;20028;-71
2023/05/29 11:55:23;;;;;;;5.00;3.13;;;25.40;37.40;;;;;;5114788;28;20030;-72
2023/05/29 11:57:57;;;;;;;6.05;3.28;;;25.30;36.90;;;;;;5115084;28;20034;-72
2023/05/29 12:00:24;;;;;;;5.45;3.60;;;25.30;37.00;;;;;;5114683;28;20046;-72
2023/05/29 12:02:51;;;;;;;5.43;3.30;;;25.30;35.60;;;;;;5114901;28;20036;-71
2023/05/29 12:05:20;;;;;;;7.57;3.88;;;25.20;36.60;;;;;;5114619;28;20035;-71
2023/05/29 12:07:53;;;;;;;9.60;3.50;;;25.20;36.50;;;;;;5114902;28;20103;-71
2023/05/29 12:10:20;;;;;;;6.10;3.47;;;25.30;37.10;;;;;;5114304;27;20019;-72
2023/05/29 12:12:54;;;;;;;6.30;3.42;;;25.30;37.60;;;;;;5115064;28;20095;-71
2023/05/29 12:15:21;;;;;;;5.60;3.53;;;25.20;37.30;;;;;;5114106;28;20024;-72
2023/05/29 12:17:51;;;;;;;6.80;3.60;;;25.20;36.20;;;;;;5114675;28;20146;-71
2023/05/29 12:20:17;;;;;;;7.10;3.50;;;25.10;35.70;;;;;;5114677;28;20032;-71
2023/05/29 12:22:45;;;;;;;6.38;3.90;;;25.10;36.40;;;;;;5114067;28;20031;-71
2023/05/29 12:25:15;;;;;;;8.60;3.88;;;25.10;36.90;;;;;;5114508;28;20038;-71
2023/05/29 12:27:43;;;;;;;5.65;3.20;;;25.00;36.10;;;;;;5114178;28;20046;-71
2023/05/29 12:30:10;;;;;;;5.50;3.72;;;25.00;36.40;;;;;;5114354;28;20080;-71
2023/05/29 12:32:37;;;;;;;5.70;4.22;;;25.10;36.40;;;;;;5114304;28;20096;-71
2023/05/29 12:35:24;;;;;;;3.88;3.47;;;25.10;36.10;;;;;;5113962;28;20023;-71
2023/05/29 12:37:56;;;;;;;7.05;3.45;;;25.10;35.00;;;;;;5114439;28;20034;-71
2023/05/29 12:40:24;;;;;;;6.18;3.60;;;25.10;35.40;;;;;;5113951;28;20020;-72
2023/05/29 12:43:05;;;;;;;10.05;3.88;;;25.00;35.20;;;;;;5114292;28;20125;-71
2023/05/29 12:45:33;;;;;;;9.32;3.70;;;25.00;35.80;;;;;;5113681;28;20044;-70
2023/05/29 12:47:58;;;;;;;7.50;3.80;;;25.00;36.20;;;;;;5114052;28;20024;-71